Time;durP1;ratioP1;P1;durP2;ratioP2;P2;SDS_P1;SDS_P2;PMS_P1;PMS_P2;Temp;Humidity;BMP_temperature;BMP_pressure;BME280_temperature;BME280_humidity;BME280_pressure;Samples;Min_cycle;Max_cycle;Signal;HPM_P1;HPM_P2
2021/03/26 00:04:44;;;;;;;30.55;17.95;;;;;;;8.58;76.51;101656.06;5037834;28;20048;-64
2021/03/26 00:07:11;;;;;;;29.33;19.20;;;;;;;8.52;76.50;101656.06;5046918;28;20079;-64
2021/03/26 00:13:01;;;;;;;31.98;18.48;;;;;;;8.42;76.64;101649.06;5039981;28;20111;-61
2021/03/26 00:15:27;;;;;;;34.92;18.95;;;;;;;8.44;77.21;101642.13;5044541;28;20441;-59
2021/03/26 00:17:53;;;;;;;30.05;18.42;;;;;;;8.43;76.95;101638.69;5047583;28;20055;-60
2021/03/26 00:20:20;;;;;;;32.42;20.90;;;;;;;8.38;76.45;101635.22;5047906;28;20053;-61
2021/03/26 00:22:47;;;;;;;30.83;19.30;;;;;;;8.34;76.38;101636.06;5043452;28;20053;-59
2021/03/26 00:25:14;;;;;;;30.33;18.77;;;;;;;8.37;76.99;101636.06;5049526;28;20053;-60
2021/03/26 00:27:40;;;;;;;35.85;21.20;;;;;;;8.35;77.39;101637.78;5046596;28;20047;-60
2021/03/26 00:30:10;;;;;;;33.53;19.02;;;;;;;8.33;77.00;101631.72;5048563;28;20072;-61
2021/03/26 00:32:37;;;;;;;33.17;18.95;;;;;;;8.29;76.97;101643.81;5043166;28;20053;-63
2021/03/26 00:35:06;;;;;;;35.17;20.77;;;;;;;8.31;76.87;101636.91;5049783;28;20148;-64
2021/03/26 00:37:32;;;;;;;31.00;19.77;;;;;;;8.25;76.60;101642.03;5044767;28;20048;-58
2021/03/26 00:39:58;;;;;;;33.50;19.27;;;;;;;8.23;76.65;101643.78;5042775;28;20053;-57
2021/03/26 00:42:25;;;;;;;36.25;20.40;;;;;;;8.14;77.72;101644.59;5044927;28;20053;-60
2021/03/26 00:44:51;;;;;;;32.25;20.58;;;;;;;8.15;77.69;101642.84;5049581;28;20103;-59
2021/03/26 00:47:18;;;;;;;31.27;19.85;;;;;;;8.06;78.06;101644.53;5049264;28;20557;-55
2021/03/26 00:49:45;;;;;;;36.60;21.20;;;;;;;7.99;77.74;101640.19;5045343;28;20099;-63
2021/03/26 00:52:11;;;;;;;32.63;20.02;;;;;;;8.00;77.50;101638.44;5047131;28;20104;-62
2021/03/26 00:54:37;;;;;;;33.75;20.73;;;;;;;8.02;77.70;101637.63;5049424;28;20047;-57
2021/03/26 00:57:04;;;;;;;35.42;21.08;;;;;;;8.06;77.23;101636.78;5049364;28;20112;-58
2021/03/26 00:59:31;;;;;;;31.85;20.92;;;;;;;8.08;77.38;101631.63;5048532;28;20102;-56
2021/03/26 01:01:57;;;;;;;32.47;21.05;;;;;;;7.99;77.40;101634.13;5046687;28;20573;-61
2021/03/26 01:04:24;;;;;;;35.67;20.73;;;;;;;7.97;77.04;101633.28;5052044;28;20088;-57
2021/03/26 01:06:51;;;;;;;31.98;23.02;;;;;;;7.97;77.25;101628.94;5050860;28;20057;-58
2021/03/26 01:09:17;;;;;;;40.33;23.75;;;;;;;7.97;77.29;101630.69;5048548;28;20146;-57
2021/03/26 01:11:43;;;;;;;37.70;23.77;;;;;;;7.97;76.91;101625.50;5045981;28;20096;-57
2021/03/26 01:14:13;;;;;;;33.97;23.05;;;;;;;7.91;77.46;101622.00;5043916;28;20047;-56
2021/03/26 01:16:39;;;;;;;42.85;24.25;;;;;;;7.89;77.12;101615.94;5044003;28;20049;-54
2021/03/26 01:19:07;;;;;;;39.45;24.30;;;;;;;7.90;77.44;101627.19;5051264;28;20057;-59
2021/03/26 01:21:37;;;;;;;36.97;21.77;;;;;;;7.85;77.39;101623.69;5062045;28;20052;-61
2021/03/26 01:24:05;;;;;;;33.42;21.00;;;;;;;7.73;77.61;101619.28;5057002;28;20048;-62
2021/03/26 01:26:32;;;;;;;35.90;22.08;;;;;;;7.72;77.82;101615.84;5068907;28;20049;-61
2021/03/26 01:28:58;;;;;;;35.67;22.25;;;;;;;7.71;78.14;101613.22;5074318;28;20049;-62
2021/03/26 01:31:25;;;;;;;40.63;23.80;;;;;;;7.68;77.91;101614.09;5064512;28;20457;-56
2021/03/26 01:33:52;;;;;;;40.65;21.70;;;;;;;7.69;78.34;101609.75;5049829;28;20048;-57
2021/03/26 01:36:19;;;;;;;36.40;21.35;;;;;;;7.63;78.28;101608.03;5052628;28;20128;-59
2021/03/26 01:38:46;;;;;;;36.00;21.83;;;;;;;7.62;78.38;101606.28;5054471;28;20052;-57
2021/03/26 01:41:17;;;;;;;34.60;21.42;;;;;;;7.66;78.44;101602.00;5042942;28;20079;-57
2021/03/26 01:43:44;;;;;;;34.53;22.13;;;;;;;7.65;78.18;101603.69;5046580;28;20041;-59
2021/03/26 01:46:12;;;;;;;34.85;21.42;;;;;;;7.61;78.31;101594.19;5054169;28;20502;-62
2021/03/26 01:48:40;;;;;;;45.05;23.05;;;;;;;7.55;78.58;101589.84;5046010;28;20068;-64
2021/03/26 01:51:09;;;;;;;38.15;22.58;;;;;;;7.45;78.92;101588.88;5046590;28;20072;-64
2021/03/26 01:53:36;;;;;;;34.47;21.00;;;;;;;7.46;78.86;101582.88;5048660;28;20119;-62
2021/03/26 01:56:04;;;;;;;36.30;21.67;;;;;;;7.37;79.28;101593.16;5050235;28;20057;-62
2021/03/26 01:58:32;;;;;;;36.47;22.73;;;;;;;7.40;78.71;101584.53;5035051;28;20058;-64
2021/03/26 02:01:04;;;;;;;37.03;21.25;;;;;;;7.30;79.15;101576.69;5048131;28;20049;-64
2021/03/26 02:10:14;;;;;;;34.50;20.98;;;;;;;7.24;79.20;101568.91;5032520;28;20072;-63
2021/03/26 02:12:41;;;;;;;35.75;21.50;;;;;;;7.25;78.68;101567.16;5049449;28;20040;-64
2021/03/26 02:15:14;;;;;;;35.95;22.27;;;;;;;7.26;78.94;101572.38;5042536;28;20045;-63
2021/03/26 02:17:40;;;;;;;37.03;21.45;;;;;;;7.28;78.57;101565.50;5043239;28;20049;-64
2021/03/26 02:20:11;;;;;;;34.00;21.30;;;;;;;7.28;78.51;101568.09;5050936;28;20502;-65
2021/03/26 02:22:37;;;;;;;34.75;21.15;;;;;;;7.28;78.05;101565.50;5053976;28;20049;-64
2021/03/26 02:25:08;;;;;;;40.67;23.20;;;;;;;7.22;78.74;101557.66;5051796;28;20052;-64
2021/03/26 02:27:38;;;;;;;37.58;21.48;;;;;;;7.25;78.44;101562.00;5052644;28;20053;-64
2021/03/26 02:30:12;;;;;;;36.22;21.65;;;;;;;7.23;78.41;101561.13;5051531;28;20052;-64
2021/03/26 02:33:30;;;;;;;37.97;23.20;;;;;;;7.18;78.40;101552.44;5039317;28;20053;-62
2021/03/26 02:36:34;;;;;;;40.13;23.67;;;;;;;7.08;78.63;101561.88;5042769;28;20052;-62
2021/03/26 02:39:01;;;;;;;37.50;22.33;;;;;;;7.04;78.95;101566.13;5034431;28;20118;-63
2021/03/26 02:41:32;;;;;;;35.42;22.70;;;;;;;6.99;79.35;101557.47;5052425;28;20049;-65
2021/03/26 02:44:02;;;;;;;38.67;23.67;;;;;;;7.00;79.02;101564.38;5053217;28;20044;-62
2021/03/26 02:46:34;;;;;;;36.90;23.20;;;;;;;6.96;79.19;101560.91;5052374;28;20044;-63
2021/03/26 02:49:08;;;;;;;41.00;23.60;;;;;;;6.97;79.36;101564.34;5042720;28;20545;-62
2021/03/26 02:51:42;;;;;;;38.00;24.27;;;;;;;6.91;79.61;101559.97;5043473;28;20060;-63
2021/03/26 02:54:16;;;;;;;45.38;25.85;;;;;;;6.88;79.68;101561.69;5052674;28;20110;-64
2021/03/26 02:56:48;;;;;;;42.03;24.75;;;;;;;6.80;80.29;101554.72;5032595;28;20060;-63
2021/03/26 02:59:18;;;;;;;39.88;25.08;;;;;;;6.80;80.42;101554.72;5032720;28;20515;-62
2021/03/26 03:01:48;;;;;;;41.83;25.40;;;;;;;6.84;80.28;101553.88;5039823;28;20494;-64
2021/03/26 03:04:19;;;;;;;41.58;25.13;;;;;;;6.87;80.06;101549.59;5052618;28;20044;-61
2021/03/26 03:06:51;;;;;;;41.70;23.77;;;;;;;6.89;80.01;101550.47;5040410;28;20052;-64
2021/03/26 03:09:20;;;;;;;38.58;23.98;;;;;;;6.93;79.22;101554.84;5034591;28;20103;-64
2021/03/26 03:11:50;;;;;;;38.67;24.02;;;;;;;6.96;79.55;101554.84;5044392;28;20067;-62
2021/03/26 03:14:21;;;;;;;44.70;27.05;;;;;;;6.85;79.95;101549.59;5043710;28;20037;-59
2021/03/26 03:16:54;;;;;;;46.15;26.83;;;;;;;6.82;80.11;101546.97;5039268;28;20052;-64
2021/03/26 03:19:33;;;;;;;41.33;24.25;;;;;;;6.83;80.27;101549.59;5035924;28;20049;-63
2021/03/26 03:22:03;;;;;;;44.47;26.38;;;;;;;6.84;80.07;101553.88;5036059;28;20049;-64
2021/03/26 03:24:33;;;;;;;46.75;26.67;;;;;;;6.89;80.04;101553.91;5042258;28;20106;-64
2021/03/26 03:27:10;;;;;;;48.75;26.55;;;;;;;6.82;80.32;101550.44;5040782;28;20057;-61
2021/03/26 03:29:41;;;;;;;42.88;27.10;;;;;;;6.83;80.34;101547.00;5044073;28;20071;-62
2021/03/26 03:32:13;;;;;;;41.42;26.35;;;;;;;6.84;80.46;101546.13;5049514;28;20502;-63
2021/03/26 03:34:43;;;;;;;41.28;26.35;;;;;;;6.87;80.32;101542.72;5043850;28;20422;-63
2021/03/26 03:37:16;;;;;;;45.78;26.52;;;;;;;6.88;80.15;101544.47;5047223;28;20119;-64
2021/03/26 03:39:51;;;;;;;49.40;29.02;;;;;;;6.87;80.50;101537.56;5039038;28;20491;-60
2021/03/26 03:42:22;;;;;;;46.25;27.20;;;;;;;6.85;80.52;101541.84;5048993;28;20056;-63
2021/03/26 03:48:14;;;;;;;46.92;27.80;;;;;;;6.82;80.85;101531.44;5040993;28;20118;-59
2021/03/26 03:50:49;;;;;;;51.35;29.27;;;;;;;6.80;80.58;101534.03;5044207;28;20048;-64
2021/03/26 03:53:20;;;;;;;42.72;25.80;;;;;;;6.83;80.24;101528.00;5044753;28;20049;-62
2021/03/26 03:55:52;;;;;;;41.25;26.13;;;;;;;6.83;80.08;101530.59;5035298;28;20048;-62
2021/03/26 03:58:23;;;;;;;47.22;26.55;;;;;;;6.74;80.13;101526.19;5035806;28;20084;-63
2021/03/26 04:00:56;;;;;;;46.88;26.67;;;;;;;6.68;80.56;101518.41;5041128;28;20045;-63
2021/03/26 04:03:27;;;;;;;41.72;26.52;;;;;;;6.66;80.38;101527.84;5043707;28;20132;-62
2021/03/26 04:06:02;;;;;;;45.00;28.13;;;;;;;6.67;80.46;101524.41;5046085;28;20516;-63
2021/03/26 04:08:33;;;;;;;47.47;27.75;;;;;;;6.67;80.58;101521.84;5049454;28;20498;-62
2021/03/26 04:11:05;;;;;;;43.65;27.75;;;;;;;6.63;80.73;101523.53;5048883;28;20045;-62
2021/03/26 04:13:39;;;;;;;44.47;28.45;;;;;;;6.56;80.74;101521.75;5043918;28;20464;-62
2021/03/26 04:16:05;;;;;;;45.97;26.85;;;;;;;6.46;80.77;101519.91;5044988;28;20103;-62
2021/03/26 04:18:36;;;;;;;42.72;27.02;;;;;;;6.44;80.58;101516.44;5033782;28;20053;-62
2021/03/26 04:21:08;;;;;;;50.38;27.75;;;;;;;6.40;80.23;101515.53;5051596;28;20056;-63
2021/03/26 04:23:42;;;;;;;44.97;25.73;;;;;;;6.43;80.11;101520.75;5050996;28;20056;-62
2021/03/26 04:26:15;;;;;;;41.80;24.83;;;;;;;6.38;80.16;101514.66;5042077;28;20056;-61
2021/03/26 04:28:47;;;;;;;43.03;25.95;;;;;;;6.34;80.07;101515.47;5037822;28;20049;-62
2021/03/26 04:31:20;;;;;;;44.47;26.33;;;;;;;6.29;80.28;101514.56;5041210;28;20049;-61
2021/03/26 04:33:47;;;;;;;45.67;26.55;;;;;;;6.27;80.45;101519.72;5041147;28;20071;-63
2021/03/26 04:36:19;;;;;;;45.30;25.80;;;;;;;6.26;80.42;101517.09;5049019;28;20063;-63
2021/03/26 04:38:51;;;;;;;43.40;26.60;;;;;;;6.25;80.23;101512.78;5051016;28;20052;-60
2021/03/26 04:41:24;;;;;;;45.35;27.08;;;;;;;6.17;80.63;101510.13;5042969;28;20490;-62
2021/03/26 04:43:55;;;;;;;47.97;27.30;;;;;;;6.18;80.81;101502.38;5048844;28;20132;-62
2021/03/26 04:46:26;;;;;;;48.15;27.30;;;;;;;6.17;81.26;101508.41;5035769;28;20094;-62
2021/03/26 04:49:02;;;;;;;48.58;26.67;;;;;;;6.16;81.35;101511.81;5039467;28;20045;-61
2021/03/26 04:51:35;;;;;;;41.40;26.90;;;;;;;6.16;81.78;101513.56;5040578;28;20056;-62
2021/03/26 04:54:10;;;;;;;49.33;27.40;;;;;;;6.15;81.48;101510.09;5042984;28;20506;-60
2021/03/26 04:56:42;;;;;;;49.97;27.80;;;;;;;6.15;81.58;101499.75;5044955;28;20045;-62
2021/03/26 04:59:11;;;;;;;47.80;27.63;;;;;;;6.16;81.67;101511.81;5054832;28;20076;-62
2021/03/26 05:01:41;;;;;;;45.15;27.20;;;;;;;6.12;81.41;101504.91;5043898;28;20094;-62
2021/03/26 05:04:15;;;;;;;46.85;27.17;;;;;;;6.12;81.52;101509.19;5037364;28;20052;-62
2021/03/26 05:06:46;;;;;;;48.38;28.58;;;;;;;6.10;81.56;101509.19;5045148;28;20408;-63
2021/03/26 05:09:17;;;;;;;48.08;28.15;;;;;;;6.05;81.80;101505.66;5041584;28;20045;-63
2021/03/26 05:11:49;;;;;;;46.35;28.63;;;;;;;6.04;81.87;101509.09;5047034;28;20134;-62
2021/03/26 05:14:22;;;;;;;46.17;26.38;;;;;;;6.05;81.95;101501.38;5050215;28;20045;-62
2021/03/26 05:16:54;;;;;;;42.65;26.13;;;;;;;6.04;82.02;101499.66;5052353;28;20061;-62
2021/03/26 05:19:25;;;;;;;43.78;26.05;;;;;;;6.03;81.71;101499.63;5049543;28;20080;-62
2021/03/26 05:25:22;;;;;;;47.03;27.58;;;;;;;6.01;81.95;101496.16;5040682;28;20047;-63
2021/03/26 05:27:50;;;;;;;48.45;27.77;;;;;;;5.96;81.94;101493.50;5044521;28;20049;-62
2021/03/26 05:30:23;;;;;;;50.30;26.60;;;;;;;5.97;81.82;101481.44;5048022;28;20049;-62
2021/03/26 05:32:55;;;;;;;47.40;26.42;;;;;;;5.96;82.07;101490.03;5044978;28;20057;-63
2021/03/26 05:35:26;;;;;;;45.63;27.02;;;;;;;5.96;82.82;101488.34;5046828;28;20472;-63
2021/03/26 05:38:01;;;;;;;44.30;26.23;;;;;;;6.03;82.74;101490.16;5041799;28;20052;-66
2021/03/26 05:40:50;;;;;;;47.65;27.80;;;;;;;6.07;82.54;101485.88;5048542;28;20045;-62
2021/03/26 05:43:49;;;;;;;47.38;26.63;;;;;;;6.07;82.85;101491.94;5040378;28;20060;-64
2021/03/26 05:46:27;;;;;;;50.92;26.83;;;;;;;6.12;82.44;101489.41;5043174;28;20383;-64
2021/03/26 05:49:00;;;;;;;48.92;27.88;;;;;;;6.13;82.67;101488.56;5043289;28;20417;-61
2021/03/26 05:51:48;;;;;;;46.90;28.00;;;;;;;6.22;82.71;101500.69;5048646;28;20049;-63
2021/03/26 05:54:26;;;;;;;51.85;28.58;;;;;;;6.21;82.93;101499.84;5048550;28;20041;-62
2021/03/26 05:57:04;;;;;;;49.88;28.77;;;;;;;6.26;82.72;101499.00;5040610;28;20064;-63
2021/03/26 05:59:42;;;;;;;48.78;25.30;;;;;;;6.61;88.23;101495.94;5042707;28;21932;-62
2021/03/26 06:02:43;;;;;;;43.80;25.25;;;;;;;7.09;86.82;101501.50;5033825;28;20099;-63
2021/03/26 06:05:32;;;;;;;40.60;24.63;;;;;;;7.58;88.30;101501.84;5039463;28;20048;-62
2021/03/26 06:08:27;;;;;;;42.60;26.15;;;;;;;7.61;82.07;101507.00;5048615;28;20502;-63
2021/03/26 06:11:14;;;;;;;42.65;26.42;;;;;;;7.45;80.81;101495.69;5035348;28;20052;-63
2021/03/26 06:14:00;;;;;;;50.55;26.13;;;;;;;7.34;79.83;101506.84;5038604;28;20048;-64
2021/03/26 06:16:57;;;;;;;38.78;24.92;;;;;;;7.20;79.76;101496.41;5042889;28;20052;-62
2021/03/26 06:19:52;;;;;;;44.38;27.00;;;;;;;7.19;79.39;101503.28;5038420;28;20558;-63
2021/03/26 06:23:02;;;;;;;42.20;24.93;;;;;;;7.07;79.77;101504.06;5038584;28;20490;-63
2021/03/26 06:25:50;;;;;;;42.00;25.83;;;;;;;7.04;80.13;101506.63;5037520;28;20042;-64
2021/03/26 06:28:30;;;;;;;44.25;26.50;;;;;;;7.06;80.12;101507.50;5037359;28;20627;-63
2021/03/26 06:31:19;;;;;;;41.83;25.98;;;;;;;7.05;79.80;101503.19;5039058;28;20056;-62
2021/03/26 06:34:06;;;;;;;43.03;26.42;;;;;;;7.11;79.98;101499.78;5039697;28;20076;-61
2021/03/26 06:37:15;;;;;;;42.47;25.88;;;;;;;7.08;79.71;101499.78;5037354;28;20174;-62
2021/03/26 06:40:03;;;;;;;40.00;25.42;;;;;;;7.07;80.19;101498.06;5038799;28;20055;-62
2021/03/26 06:42:44;;;;;;;45.10;26.15;;;;;;;7.12;80.28;101497.22;5038898;28;20053;-62
2021/03/26 06:45:33;;;;;;;42.97;25.40;;;;;;;7.12;80.25;101497.22;5037712;28;20048;-62
2021/03/26 06:48:11;;;;;;;41.80;25.25;;;;;;;7.21;80.62;101490.38;5036751;28;20059;-62
2021/03/26 06:50:52;;;;;;;41.15;24.70;;;;;;;7.32;80.61;101488.75;5036914;28;20045;-63
2021/03/26 06:53:28;;;;;;;46.20;27.02;;;;;;;7.37;80.02;101489.63;5035749;28;20037;-63
2021/03/26 06:56:06;;;;;;;42.72;26.52;;;;;;;7.44;80.24;101485.34;5038348;28;20045;-63
2021/03/26 06:58:49;;;;;;;45.10;27.30;;;;;;;7.50;79.80;101480.19;5032894;28;20053;-63
2021/03/26 07:01:32;;;;;;;39.60;24.58;;;;;;;7.62;79.13;101482.00;5039267;28;20507;-63
2021/03/26 07:04:20;;;;;;;45.45;27.33;;;;;;;7.62;79.39;101469.06;5037465;28;20056;-63
2021/03/26 07:07:11;;;;;;;42.38;24.95;;;;;;;7.76;78.70;101467.38;5039330;28;21931;-63
2021/03/26 07:10:08;;;;;;;42.72;25.80;;;;;;;7.89;79.06;101472.63;5038665;28;20045;-63
2021/03/26 07:13:15;;;;;;;40.42;25.27;;;;;;;8.01;78.18;101476.97;5037871;28;20079;-63
2021/03/26 07:15:46;;;;;;;43.55;26.63;;;;;;;8.12;77.44;101459.72;4977820;28;21006;-63
2021/03/26 07:18:34;;;;;;;42.60;25.00;;;;;;;8.12;77.77;101469.25;5031382;28;20049;-63
2021/03/26 07:21:17;;;;;;;46.15;24.67;;;;;;;8.28;77.68;101465.81;5037248;28;20190;-63
2021/03/26 07:24:17;;;;;;;44.03;24.92;;;;;;;8.42;76.95;101470.19;5035893;28;20041;-62
2021/03/26 07:26:53;;;;;;;43.40;25.52;;;;;;;8.61;75.71;101464.19;5034089;28;20063;-62
2021/03/26 07:29:29;;;;;;;39.25;25.17;;;;;;;8.69;75.09;101469.34;5038599;28;20067;-60
2021/03/26 07:35:43;;;;;;;36.30;22.65;;;;;;;8.85;74.30;101460.72;4973416;28;20065;-60
2021/03/26 07:38:22;;;;;;;42.15;24.48;;;;;;;8.93;74.58;101468.50;5039448;28;20080;-63
2021/03/26 07:41:01;;;;;;;37.00;23.23;;;;;;;9.15;73.49;101468.47;5039144;28;20053;-62
2021/03/26 07:43:45;;;;;;;36.90;23.02;;;;;;;9.16;73.18;101467.59;5040598;28;20106;-63
2021/03/26 07:46:24;;;;;;;40.28;24.23;;;;;;;9.25;72.30;101470.19;5046660;28;20045;-63
2021/03/26 07:49:20;;;;;;;38.38;23.75;;;;;;;9.39;72.16;101464.09;5048185;28;20053;-62
2021/03/26 07:51:54;;;;;;;35.95;21.98;;;;;;;9.37;72.07;101463.22;5040665;28;20072;-63
2021/03/26 07:54:54;;;;;;;34.50;20.92;;;;;;;9.58;71.70;101460.56;5045595;28;20049;-62
2021/03/26 07:57:37;;;;;;;33.08;20.17;;;;;;;9.69;71.25;101462.28;5040478;28;20053;-63
2021/03/26 08:00:19;;;;;;;27.67;18.67;;;;;;;9.75;70.33;101464.84;5045917;28;20049;-63
2021/03/26 08:03:03;;;;;;;33.10;19.92;;;;;;;9.76;70.36;101456.16;5046054;28;20049;-63
2021/03/26 08:05:35;;;;;;;31.02;20.08;;;;;;;9.84;69.81;101454.41;5044394;28;20759;-61
2021/03/26 08:08:25;;;;;;;29.88;17.90;;;;;;;9.86;70.40;101460.47;5046225;28;20056;-63
2021/03/26 08:10:57;;;;;;;28.80;17.67;;;;;;;9.83;70.11;101454.41;5049302;28;20041;-62
2021/03/26 08:13:51;;;;;;;31.73;19.05;;;;;;;10.00;69.99;101451.75;5044890;28;20049;-62
2021/03/26 08:16:34;;;;;;;29.77;18.80;;;;;;;9.99;70.24;101458.66;5049920;28;20055;-63
2021/03/26 08:19:11;;;;;;;28.73;18.02;;;;;;;10.21;68.95;101458.53;5048240;28;20045;-64
2021/03/26 08:21:46;;;;;;;27.02;16.42;;;;;;;10.18;68.71;101456.84;5043996;28;20498;-62
2021/03/26 08:24:45;;;;;;;29.98;17.70;;;;;;;10.41;68.41;101463.66;5045322;28;20056;-63
2021/03/26 08:27:33;;;;;;;30.67;17.55;;;;;;;10.53;67.56;101453.16;5040347;28;20426;-63
2021/03/26 08:30:20;;;;;;;27.25;17.58;;;;;;;10.56;66.90;101455.75;5042675;28;20067;-61
2021/03/26 08:33:03;;;;;;;33.30;19.30;;;;;;;10.50;67.18;101455.78;5062291;28;20059;-64
2021/03/26 08:35:39;;;;;;;30.65;17.02;;;;;;;10.52;67.46;101454.06;5054561;28;20059;-64
2021/03/26 08:38:21;;;;;;;27.00;16.95;;;;;;;10.55;67.05;101456.59;5044565;28;20064;-64
2021/03/26 08:40:54;;;;;;;31.92;16.90;;;;;;;10.60;66.98;101445.31;5048890;28;20049;-63
2021/03/26 08:43:22;;;;;;;27.52;17.58;;;;;;;10.79;66.81;101453.81;5046796;28;20049;-61
2021/03/26 08:45:55;;;;;;;32.33;19.50;;;;;;;10.77;66.56;101453.00;5047376;28;20049;-63
2021/03/26 08:48:33;;;;;;;28.52;17.67;;;;;;;10.74;66.96;101453.84;5045340;28;20098;-63
2021/03/26 08:51:20;;;;;;;23.17;15.18;;;;;;;10.83;66.17;101456.38;5044623;28;20502;-63
2021/03/26 08:53:58;;;;;;;25.27;16.73;;;;;;;10.88;65.69;101452.00;5043041;28;20110;-62
2021/03/26 08:56:37;;;;;;;23.25;14.32;;;;;;;11.00;64.78;101451.03;5041562;28;20041;-62
2021/03/26 08:59:23;;;;;;;29.02;14.90;;;;;;;11.05;64.53;101450.97;5042006;28;20060;-63
2021/03/26 09:02:11;;;;;;;25.38;15.18;;;;;;;11.13;64.28;101456.13;5039320;28;20698;-63
2021/03/26 09:04:59;;;;;;;23.83;13.35;;;;;;;11.38;63.10;101454.13;5043593;28;20473;-63
2021/03/26 09:07:37;;;;;;;24.88;14.23;;;;;;;11.53;61.76;101449.63;5041961;28;20052;-62
2021/03/26 09:10:20;;;;;;;25.23;13.98;;;;;;;11.55;62.63;101451.34;5044592;28;20060;-61
2021/03/26 09:12:58;;;;;;;22.73;13.35;;;;;;;11.62;62.24;101447.75;5045074;28;20052;-61
2021/03/26 09:15:38;;;;;;;27.70;12.50;;;;;;;11.78;60.68;101451.03;5046938;28;20471;-61
2021/03/26 09:18:13;;;;;;;20.63;12.27;;;;;;;11.80;61.09;101454.50;5049927;28;20167;-64
2021/03/26 09:20:44;;;;;;;22.08;11.57;;;;;;;11.83;61.17;101453.59;5041620;28;20418;-64
2021/03/26 09:23:38;;;;;;;19.60;10.82;;;;;;;12.00;60.27;101447.31;5043966;28;20055;-62
2021/03/26 09:26:30;;;;;;;15.70;9.32;;;;;;;12.13;59.26;101436.69;5045244;28;20056;-63
2021/03/26 09:29:02;;;;;;;16.90;9.60;;;;;;;12.22;58.69;101430.47;5045500;28;20053;-61
2021/03/26 09:31:34;;;;;;;17.58;10.07;;;;;;;12.26;58.55;101434.78;5046131;28;20041;-61
2021/03/26 09:34:03;;;;;;;20.45;9.65;;;;;;;12.20;58.82;101436.63;5047529;28;20060;-63
2021/03/26 09:36:41;;;;;;;17.00;9.38;;;;;;;12.23;59.33;101431.31;5045157;28;20044;-64
2021/03/26 09:39:09;;;;;;;16.90;9.80;;;;;;;12.32;59.45;101431.22;5041048;28;20502;-63
2021/03/26 09:41:46;;;;;;;19.98;10.57;;;;;;;12.17;59.87;101432.31;5043761;28;20049;-61
2021/03/26 09:44:27;;;;;;;19.90;10.60;;;;;;;12.27;59.79;101433.03;5050305;28;20107;-63
2021/03/26 09:46:59;;;;;;;22.45;10.60;;;;;;;12.59;59.69;101422.06;5035037;28;20048;-61
2021/03/26 09:49:31;;;;;;;16.02;8.48;;;;;;;12.85;63.03;101419.91;5040316;28;20049;-63
2021/03/26 09:52:09;;;;;;;12.35;7.38;;;;;;;13.15;59.82;101418.50;5041293;28;20059;-62
2021/03/26 09:54:39;;;;;;;19.77;7.45;;;;;;;13.34;56.52;101405.91;5039076;28;20072;-62
2021/03/26 09:57:23;;;;;;;14.32;6.72;;;;;;;13.47;54.79;101403.97;5038497;28;20052;-62
2021/03/26 10:00:16;;;;;;;12.32;6.72;;;;;;;13.50;55.90;101408.25;5038836;28;20056;-62
2021/03/26 10:02:55;;;;;;;14.25;7.13;;;;;;;13.63;57.05;101406.25;5040112;28;20053;-62
2021/03/26 10:05:32;;;;;;;14.30;6.72;;;;;;;13.79;53.78;101398.94;5042649;28;20045;-63
2021/03/26 10:08:08;;;;;;;15.73;7.03;;;;;;;13.78;53.33;101392.81;5042155;28;20048;-62
2021/03/26 10:10:45;;;;;;;14.35;5.75;;;;;;;13.71;52.33;101396.47;5041071;28;20049;-63
2021/03/26 10:13:15;;;;;;;14.32;6.05;;;;;;;13.90;54.38;101383.88;5039863;28;20041;-62
2021/03/26 10:15:45;;;;;;;11.98;4.80;;;;;;;14.11;53.86;101381.66;5045216;28;20045;-62
2021/03/26 10:18:15;;;;;;;14.32;4.40;;;;;;;14.12;50.27;101379.00;5046701;28;20048;-64
2021/03/26 10:20:49;;;;;;;10.15;3.80;;;;;;;14.06;54.44;101391.34;5049623;28;20047;-62
2021/03/26 10:23:30;;;;;;;12.13;3.90;;;;;;;13.97;50.00;101380.22;5048745;28;20040;-61
2021/03/26 10:26:18;;;;;;;10.30;4.10;;;;;;;13.87;51.47;101386.53;5047675;28;20040;-62
2021/03/26 10:29:13;;;;;;;10.48;4.45;;;;;;;13.74;51.93;101379.84;5045929;28;20119;-62
2021/03/26 10:31:40;;;;;;;;;;;;;;;13.64;51.38;101373.97;5048291;28;20053;-62
2021/03/26 10:34:09;;;;;;;8.98;4.68;;;;;;;13.62;51.21;101370.53;5051305;28;19921;-61
2021/03/26 10:36:59;;;;;;;15.85;4.93;;;;;;;13.80;51.00;101369.28;5049973;28;20045;-62
2021/03/26 10:39:31;;;;;;;8.85;3.50;;;;;;;13.92;51.29;101370.75;5044387;28;20102;-61
2021/03/26 10:42:08;;;;;;;9.35;3.70;;;;;;;13.95;50.34;101352.38;5052031;28;20057;-63
2021/03/26 10:44:44;;;;;;;19.52;5.03;;;;;;;14.01;48.60;101356.59;5050016;28;20045;-62
2021/03/26 10:47:18;;;;;;;9.15;3.80;;;;;;;13.91;50.80;101351.59;5047729;28;20505;-62
2021/03/26 10:49:49;;;;;;;10.18;3.17;;;;;;;14.01;50.33;101349.59;5048031;28;20418;-61
2021/03/26 10:52:20;;;;;;;11.93;3.47;;;;;;;14.15;50.10;101350.16;5048846;28;20060;-63
2021/03/26 10:54:52;;;;;;;11.52;3.58;;;;;;;14.28;49.23;101348.06;5047249;28;20055;-63
2021/03/26 11:00:42;;;;;;;12.85;4.07;;;;;;;14.11;48.90;101337.19;5041830;28;20532;-61
2021/03/26 11:03:14;;;;;;;8.80;3.38;;;;;;;14.36;47.79;101333.94;5038713;28;20045;-61
2021/03/26 11:05:47;;;;;;;8.85;2.95;;;;;;;14.40;47.14;101330.34;5045840;28;20045;-61
2021/03/26 11:08:41;;;;;;;12.90;3.67;;;;;;;14.33;46.51;101332.25;5042875;28;20393;-61
2021/03/26 11:11:21;;;;;;;21.33;3.65;;;;;;;14.33;47.94;101323.53;5045116;28;20119;-63
2021/03/26 11:14:41;;;;;;;10.15;3.58;;;;;;;14.29;46.52;101326.25;5045279;28;20111;-62
2021/03/26 11:17:27;;;;;;;8.68;3.10;;;;;;;14.03;47.72;101315.56;5043608;28;20045;-62
2021/03/26 11:20:07;;;;;;;;;;;;;;;14.04;47.47;101315.53;5042380;28;20510;-63
2021/03/26 11:22:36;;;;;;;8.60;2.75;;;;;;;13.95;47.04;101306.16;5042301;28;19925;-64
2021/03/26 11:25:07;;;;;;;8.27;2.88;;;;;;;13.91;47.39;101303.63;5047794;28;20052;-62
2021/03/26 11:27:39;;;;;;;9.77;3.60;;;;;;;13.82;47.87;101304.75;5046988;22;20183;-65
2021/03/26 11:30:20;;;;;;;10.48;3.20;;;;;;;14.09;47.51;101307.56;5013946;28;20061;-66
2021/03/26 11:32:51;;;;;;;10.93;4.05;;;;;;;14.07;47.40;101304.13;5019459;28;20049;-67
2021/03/26 11:35:20;;;;;;;13.93;3.63;;;;;;;14.07;48.17;101296.28;5021888;28;20092;-66
2021/03/26 11:37:50;;;;;;;13.10;4.55;;;;;;;14.15;48.43;101300.44;5024512;28;20062;-66
2021/03/26 11:40:24;;;;;;;11.27;3.50;;;;;;;14.31;48.50;101286.94;5025972;28;20136;-66
2021/03/26 11:42:52;;;;;;;12.10;3.88;;;;;;;14.31;47.80;101289.56;5027517;28;20080;-67
2021/03/26 11:45:36;;;;;;;12.88;4.53;;;;;;;14.37;47.28;101291.16;5022508;28;20506;-66
2021/03/26 11:48:10;;;;;;;10.15;3.55;;;;;;;14.36;47.74;101286.81;5027410;28;20045;-66
2021/03/26 11:50:40;;;;;;;8.00;3.70;;;;;;;14.51;48.15;101275.97;5024430;28;20041;-65
2021/03/26 11:53:26;;;;;;;9.38;4.10;;;;;;;14.60;47.90;101273.09;5022221;28;20334;-69
2021/03/26 11:56:02;;;;;;;11.10;3.85;;;;;;;14.66;48.15;101268.56;5025198;28;20108;-65
2021/03/26 11:58:34;;;;;;;9.73;3.92;;;;;;;14.73;46.57;101275.38;5021357;28;20049;-67
2021/03/26 12:01:08;;;;;;;9.43;4.35;;;;;;;14.78;47.73;101265.66;5014463;28;20057;-63
2021/03/26 12:03:41;;;;;;;10.90;3.37;;;;;;;15.04;46.12;101261.41;5022001;28;20045;-64
2021/03/26 12:06:18;;;;;;;9.85;4.13;;;;;;;15.11;46.01;101259.47;5021891;28;20061;-66
2021/03/26 12:08:56;;;;;;;11.52;3.58;;;;;;;15.09;45.67;101256.91;5019776;28;20076;-65
2021/03/26 12:11:28;;;;;;;11.57;3.63;;;;;;;14.98;46.68;101241.47;5023122;28;20061;-66
2021/03/26 12:14:02;;;;;;;8.13;3.65;;;;;;;14.96;46.56;101238.06;5023550;28;20581;-66
2021/03/26 12:16:31;;;;;;;12.77;4.60;;;;;;;14.91;46.00;101229.47;5019021;28;20057;-61
2021/03/26 12:19:00;;;;;;;11.60;4.50;;;;;;;14.89;45.91;101237.41;5022211;28;20068;-66
2021/03/26 12:21:43;;;;;;;10.98;4.63;;;;;;;14.94;45.55;101234.63;5022909;28;20053;-64
2021/03/26 12:24:20;;;;;;;11.70;3.95;;;;;;;14.95;45.86;101230.25;5023131;28;20046;-70